sensor_id;sensor_type;location;lat;lon;timestamp;temperature;humidity
10095;DHT22;5086;50.830;7.102;2023-04-28T00:00:35;12.80;99.90
10095;DHT22;5086;50.830;7.102;2023-04-28T00:03:02;12.80;99.90
10095;DHT22;5086;50.830;7.102;2023-04-28T00:05:35;12.80;99.90
10095;DHT22;5086;50.830;7.102;2023-04-28T00:08:02;12.80;99.90
10095;DHT22;5086;50.830;7.102;2023-04-28T00:13:37;12.80;99.90
10095;DHT22;5086;50.830;7.102;2023-04-28T00:16:05;12.70;99.90
10095;DHT22;5086;50.830;7.102;2023-04-28T00:18:34;12.70;99.90
10095;DHT22;5086;50.830;7.102;2023-04-28T00:21:01;12.80;99.90
10095;DHT22;5086;50.830;7.102;2023-04-28T00:23:30;12.80;99.90
10095;DHT22;5086;50.830;7.102;2023-04-28T00:26:03;12.80;99.90
10095;DHT22;5086;50.830;7.102;2023-04-28T00:28:33;12.80;99.90
10095;DHT22;5086;50.830;7.102;2023-04-28T00:31:08;12.80;99.90
10095;DHT22;5086;50.830;7.102;2023-04-28T00:33:37;12.80;99.90
10095;DHT22;5086;50.830;7.102;2023-04-28T00:36:05;12.80;99.90
10095;DHT22;5086;50.830;7.102;2023-04-28T00:38:32;12.70;99.90
10095;DHT22;5086;50.830;7.102;2023-04-28T00:41:03;12.70;99.90
10095;DHT22;5086;50.830;7.102;2023-04-28T00:43:31;12.70;99.90
10095;DHT22;5086;50.830;7.102;2023-04-28T00:45:58;12.70;99.90
10095;DHT22;5086;50.830;7.102;2023-04-28T00:48:26;12.70;99.90
10095;DHT22;5086;50.830;7.102;2023-04-28T00:51:09;12.70;99.90
10095;DHT22;5086;50.830;7.102;2023-04-28T00:54:12;12.70;99.90
10095;DHT22;5086;50.830;7.102;2023-04-28T00:56:57;12.60;99.90
10095;DHT22;5086;50.830;7.102;2023-04-28T00:59:44;12.60;99.90
10095;DHT22;5086;50.830;7.102;2023-04-28T01:02:12;12.60;99.90
10095;DHT22;5086;50.830;7.102;2023-04-28T01:04:42;12.60;99.90
10095;DHT22;5086;50.830;7.102;2023-04-28T01:07:09;12.50;99.90
10095;DHT22;5086;50.830;7.102;2023-04-28T01:09:39;12.50;99.90
10095;DHT22;5086;50.830;7.102;2023-04-28T01:12:08;12.60;99.90
10095;DHT22;5086;50.830;7.102;2023-04-28T01:14:36;12.60;99.90
10095;DHT22;5086;50.830;7.102;2023-04-28T01:17:37;12.60;99.90
10095;DHT22;5086;50.830;7.102;2023-04-28T01:20:05;12.50;99.90
10095;DHT22;5086;50.830;7.102;2023-04-28T01:22:33;12.60;99.90
10095;DHT22;5086;50.830;7.102;2023-04-28T01:25:01;12.60;99.90
10095;DHT22;5086;50.830;7.102;2023-04-28T01:27:28;12.60;99.90
10095;DHT22;5086;50.830;7.102;2023-04-28T01:29:55;12.60;99.90
10095;DHT22;5086;50.830;7.102;2023-04-28T01:32:23;12.60;99.90
10095;DHT22;5086;50.830;7.102;2023-04-28T01:34:51;12.50;99.90
10095;DHT22;5086;50.830;7.102;2023-04-28T01:37:18;12.40;99.90
10095;DHT22;5086;50.830;7.102;2023-04-28T01:39:45;12.40;99.90
10095;DHT22;5086;50.830;7.102;2023-04-28T01:42:14;12.40;99.90
10095;DHT22;5086;50.830;7.102;2023-04-28T01:44:41;12.40;99.90
10095;DHT22;5086;50.830;7.102;2023-04-28T01:47:11;12.40;99.90
10095;DHT22;5086;50.830;7.102;2023-04-28T01:49:39;12.30;99.90
10095;DHT22;5086;50.830;7.102;2023-04-28T01:52:06;12.30;99.90
10095;DHT22;5086;50.830;7.102;2023-04-28T01:54:32;12.30;99.90
10095;DHT22;5086;50.830;7.102;2023-04-28T01:56:59;12.30;99.90
10095;DHT22;5086;50.830;7.102;2023-04-28T01:59:28;12.30;99.90
10095;DHT22;5086;50.830;7.102;2023-04-28T02:01:55;12.30;99.90
10095;DHT22;5086;50.830;7.102;2023-04-28T02:04:22;12.30;99.90
10095;DHT22;5086;50.830;7.102;2023-04-28T02:06:48;12.20;99.90
10095;DHT22;5086;50.830;7.102;2023-04-28T02:09:16;12.30;99.90
10095;DHT22;5086;50.830;7.102;2023-04-28T02:11:42;12.20;99.90
10095;DHT22;5086;50.830;7.102;2023-04-28T02:14:09;12.20;99.90
10095;DHT22;5086;50.830;7.102;2023-04-28T02:16:37;12.10;99.90
10095;DHT22;5086;50.830;7.102;2023-04-28T02:19:04;12.10;99.90
10095;DHT22;5086;50.830;7.102;2023-04-28T02:21:33;12.20;99.90
10095;DHT22;5086;50.830;7.102;2023-04-28T02:24:00;12.20;99.90
10095;DHT22;5086;50.830;7.102;2023-04-28T02:26:27;12.10;99.90
10095;DHT22;5086;50.830;7.102;2023-04-28T02:28:54;12.10;99.90
10095;DHT22;5086;50.830;7.102;2023-04-28T02:31:21;12.10;99.90
10095;DHT22;5086;50.830;7.102;2023-04-28T02:33:49;12.10;99.90
10095;DHT22;5086;50.830;7.102;2023-04-28T02:36:16;12.00;99.90
10095;DHT22;5086;50.830;7.102;2023-04-28T02:38:49;12.10;99.90
10095;DHT22;5086;50.830;7.102;2023-04-28T02:41:16;12.00;99.90
10095;DHT22;5086;50.830;7.102;2023-04-28T02:43:45;12.00;99.90
10095;DHT22;5086;50.830;7.102;2023-04-28T02:46:12;12.00;99.90
10095;DHT22;5086;50.830;7.102;2023-04-28T02:48:38;12.00;99.90
10095;DHT22;5086;50.830;7.102;2023-04-28T02:51:07;12.00;99.90
10095;DHT22;5086;50.830;7.102;2023-04-28T02:53:34;12.00;99.90
10095;DHT22;5086;50.830;7.102;2023-04-28T02:56:01;12.00;99.90
10095;DHT22;5086;50.830;7.102;2023-04-28T02:58:29;12.00;99.90
10095;DHT22;5086;50.830;7.102;2023-04-28T03:00:56;12.00;99.90
10095;DHT22;5086;50.830;7.102;2023-04-28T03:03:22;12.00;99.90
10095;DHT22;5086;50.830;7.102;2023-04-28T03:05:49;11.90;99.90
10095;DHT22;5086;50.830;7.102;2023-04-28T03:08:17;11.90;99.90
10095;DHT22;5086;50.830;7.102;2023-04-28T03:10:45;11.90;99.90
10095;DHT22;5086;50.830;7.102;2023-04-28T03:13:12;11.90;99.90
10095;DHT22;5086;50.830;7.102;2023-04-28T03:15:41;11.80;99.90
10095;DHT22;5086;50.830;7.102;2023-04-28T03:18:08;11.80;99.90
10095;DHT22;5086;50.830;7.102;2023-04-28T03:20:34;11.80;99.90
10095;DHT22;5086;50.830;7.102;2023-04-28T03:23:02;11.80;99.90
10095;DHT22;5086;50.830;7.102;2023-04-28T03:25:30;11.80;99.90
10095;DHT22;5086;50.830;7.102;2023-04-28T03:27:57;11.80;99.90
10095;DHT22;5086;50.830;7.102;2023-04-28T03:30:24;11.80;99.90
10095;DHT22;5086;50.830;7.102;2023-04-28T03:32:51;11.80;99.90
10095;DHT22;5086;50.830;7.102;2023-04-28T03:35:18;11.80;99.90
10095;DHT22;5086;50.830;7.102;2023-04-28T03:37:45;11.80;99.90
10095;DHT22;5086;50.830;7.102;2023-04-28T03:40:12;11.80;99.90
10095;DHT22;5086;50.830;7.102;2023-04-28T03:42:40;11.70;99.90
10095;DHT22;5086;50.830;7.102;2023-04-28T03:45:08;11.70;99.90
10095;DHT22;5086;50.830;7.102;2023-04-28T03:47:35;11.70;99.90
10095;DHT22;5086;50.830;7.102;2023-04-28T03:50:02;11.50;99.90
10095;DHT22;5086;50.830;7.102;2023-04-28T03:52:29;11.40;99.90
10095;DHT22;5086;50.830;7.102;2023-04-28T03:54:56;11.30;99.90
10095;DHT22;5086;50.830;7.102;2023-04-28T03:57:23;11.10;99.90
10095;DHT22;5086;50.830;7.102;2023-04-28T03:59:52;11.00;99.90
10095;DHT22;5086;50.830;7.102;2023-04-28T04:02:26;10.90;99.90
10095;DHT22;5086;50.830;7.102;2023-04-28T04:04:53;10.80;99.90
10095;DHT22;5086;50.830;7.102;2023-04-28T04:07:22;10.80;99.90
10095;DHT22;5086;50.830;7.102;2023-04-28T04:09:49;10.80;99.90
10095;DHT22;5086;50.830;7.102;2023-04-28T04:12:16;10.80;99.90
10095;DHT22;5086;50.830;7.102;2023-04-28T04:14:43;10.70;99.90
10095;DHT22;5086;50.830;7.102;2023-04-28T04:17:12;10.60;99.90
10095;DHT22;5086;50.830;7.102;2023-04-28T04:19:39;10.60;99.90
10095;DHT22;5086;50.830;7.102;2023-04-28T04:22:09;10.60;99.90
10095;DHT22;5086;50.830;7.102;2023-04-28T04:24:36;10.70;99.90
10095;DHT22;5086;50.830;7.102;2023-04-28T04:27:03;10.70;99.90
10095;DHT22;5086;50.830;7.102;2023-04-28T04:29:30;10.70;99.90
10095;DHT22;5086;50.830;7.102;2023-04-28T04:31:58;10.70;99.90
10095;DHT22;5086;50.830;7.102;2023-04-28T04:34:26;10.70;99.90
10095;DHT22;5086;50.830;7.102;2023-04-28T04:36:53;10.70;99.90
10095;DHT22;5086;50.830;7.102;2023-04-28T04:39:20;10.70;99.90
10095;DHT22;5086;50.830;7.102;2023-04-28T04:41:47;10.80;99.90
10095;DHT22;5086;50.830;7.102;2023-04-28T04:44:13;10.60;99.90
10095;DHT22;5086;50.830;7.102;2023-04-28T04:46:40;10.60;99.90
10095;DHT22;5086;50.830;7.102;2023-04-28T04:49:07;10.60;99.90
10095;DHT22;5086;50.830;7.102;2023-04-28T04:51:53;10.70;99.90
10095;DHT22;5086;50.830;7.102;2023-04-28T04:54:20;10.80;99.90
10095;DHT22;5086;50.830;7.102;2023-04-28T04:56:47;10.80;99.90
10095;DHT22;5086;50.830;7.102;2023-04-28T04:59:14;10.90;99.90
10095;DHT22;5086;50.830;7.102;2023-04-28T05:01:42;10.80;99.90
10095;DHT22;5086;50.830;7.102;2023-04-28T05:04:09;10.90;99.90
10095;DHT22;5086;50.830;7.102;2023-04-28T05:06:37;10.90;99.90
10095;DHT22;5086;50.830;7.102;2023-04-28T05:09:07;10.80;99.90
10095;DHT22;5086;50.830;7.102;2023-04-28T05:11:35;10.90;99.90
10095;DHT22;5086;50.830;7.102;2023-04-28T05:14:02;10.90;99.90
10095;DHT22;5086;50.830;7.102;2023-04-28T05:16:29;10.90;99.90
10095;DHT22;5086;50.830;7.102;2023-04-28T05:18:56;10.90;99.90
10095;DHT22;5086;50.830;7.102;2023-04-28T05:21:23;10.90;99.90
10095;DHT22;5086;50.830;7.102;2023-04-28T05:23:51;10.90;99.90
10095;DHT22;5086;50.830;7.102;2023-04-28T05:26:20;10.90;99.90
10095;DHT22;5086;50.830;7.102;2023-04-28T05:28:47;11.00;99.90
10095;DHT22;5086;50.830;7.102;2023-04-28T05:31:15;10.90;99.90
10095;DHT22;5086;50.830;7.102;2023-04-28T05:33:42;10.90;99.90
10095;DHT22;5086;50.830;7.102;2023-04-28T05:36:12;10.80;99.90
10095;DHT22;5086;50.830;7.102;2023-04-28T05:38:41;10.80;99.90
10095;DHT22;5086;50.830;7.102;2023-04-28T05:41:08;10.70;99.90
10095;DHT22;5086;50.830;7.102;2023-04-28T05:43:37;10.70;99.90
10095;DHT22;5086;50.830;7.102;2023-04-28T05:46:04;10.70;99.90
10095;DHT22;5086;50.830;7.102;2023-04-28T05:48:31;10.80;99.90
10095;DHT22;5086;50.830;7.102;2023-04-28T05:50:58;10.80;99.90
10095;DHT22;5086;50.830;7.102;2023-04-28T05:53:25;10.70;99.90
10095;DHT22;5086;50.830;7.102;2023-04-28T05:55:53;10.70;99.90
10095;DHT22;5086;50.830;7.102;2023-04-28T05:58:19;10.60;99.90
10095;DHT22;5086;50.830;7.102;2023-04-28T06:00:48;10.70;99.90
10095;DHT22;5086;50.830;7.102;2023-04-28T06:06:30;10.70;99.90
10095;DHT22;5086;50.830;7.102;2023-04-28T06:09:01;10.80;99.90
10095;DHT22;5086;50.830;7.102;2023-04-28T06:11:28;10.80;99.90
10095;DHT22;5086;50.830;7.102;2023-04-28T06:14:00;10.90;99.90
10095;DHT22;5086;50.830;7.102;2023-04-28T06:16:39;10.90;99.90
10095;DHT22;5086;50.830;7.102;2023-04-28T06:19:07;10.90;99.90
10095;DHT22;5086;50.830;7.102;2023-04-28T06:21:34;11.00;99.90
10095;DHT22;5086;50.830;7.102;2023-04-28T06:24:01;11.00;99.90
10095;DHT22;5086;50.830;7.102;2023-04-28T06:26:28;10.90;99.90
10095;DHT22;5086;50.830;7.102;2023-04-28T06:28:55;11.00;99.90
10095;DHT22;5086;50.830;7.102;2023-04-28T06:31:22;11.10;99.90
10095;DHT22;5086;50.830;7.102;2023-04-28T06:33:50;11.10;99.90
10095;DHT22;5086;50.830;7.102;2023-04-28T06:36:18;11.20;99.90
10095;DHT22;5086;50.830;7.102;2023-04-28T06:38:45;11.20;99.90
10095;DHT22;5086;50.830;7.102;2023-04-28T06:41:12;11.20;99.90
10095;DHT22;5086;50.830;7.102;2023-04-28T06:43:53;11.20;99.90
10095;DHT22;5086;50.830;7.102;2023-04-28T06:46:22;11.20;99.90
10095;DHT22;5086;50.830;7.102;2023-04-28T06:48:52;11.10;99.90
10095;DHT22;5086;50.830;7.102;2023-04-28T06:51:19;11.20;99.90
10095;DHT22;5086;50.830;7.102;2023-04-28T06:53:46;11.30;99.90
10095;DHT22;5086;50.830;7.102;2023-04-28T06:56:15;11.40;99.90
10095;DHT22;5086;50.830;7.102;2023-04-28T06:58:42;11.40;99.90
10095;DHT22;5086;50.830;7.102;2023-04-28T07:01:09;11.50;99.90
10095;DHT22;5086;50.830;7.102;2023-04-28T07:03:37;11.60;99.90
10095;DHT22;5086;50.830;7.102;2023-04-28T07:06:09;11.70;99.90
10095;DHT22;5086;50.830;7.102;2023-04-28T07:08:37;11.60;99.90
10095;DHT22;5086;50.830;7.102;2023-04-28T07:11:06;11.60;99.90
10095;DHT22;5086;50.830;7.102;2023-04-28T07:13:45;11.80;99.90
10095;DHT22;5086;50.830;7.102;2023-04-28T07:16:16;11.80;99.90
10095;DHT22;5086;50.830;7.102;2023-04-28T07:18:43;12.00;99.90
10095;DHT22;5086;50.830;7.102;2023-04-28T07:21:11;12.10;99.90
10095;DHT22;5086;50.830;7.102;2023-04-28T07:23:39;12.50;99.90
10095;DHT22;5086;50.830;7.102;2023-04-28T07:26:06;12.60;99.90
10095;DHT22;5086;50.830;7.102;2023-04-28T07:28:34;12.70;99.90
10095;DHT22;5086;50.830;7.102;2023-04-28T07:31:06;12.80;99.90
10095;DHT22;5086;50.830;7.102;2023-04-28T07:33:33;12.70;99.90
10095;DHT22;5086;50.830;7.102;2023-04-28T07:36:00;12.70;99.90
10095;DHT22;5086;50.830;7.102;2023-04-28T07:38:29;12.70;99.90
10095;DHT22;5086;50.830;7.102;2023-04-28T07:40:59;12.80;99.90
10095;DHT22;5086;50.830;7.102;2023-04-28T07:43:26;12.90;99.90
10095;DHT22;5086;50.830;7.102;2023-04-28T07:45:52;12.70;99.90
10095;DHT22;5086;50.830;7.102;2023-04-28T07:48:20;12.80;99.90
10095;DHT22;5086;50.830;7.102;2023-04-28T07:50:50;13.00;99.90
10095;DHT22;5086;50.830;7.102;2023-04-28T07:53:25;13.20;99.90
10095;DHT22;5086;50.830;7.102;2023-04-28T07:56:04;13.40;99.90
10095;DHT22;5086;50.830;7.102;2023-04-28T07:58:31;13.60;99.90
10095;DHT22;5086;50.830;7.102;2023-04-28T08:00:58;13.70;99.90
10095;DHT22;5086;50.830;7.102;2023-04-28T08:03:45;13.90;99.90
10095;DHT22;5086;50.830;7.102;2023-04-28T08:06:20;13.90;99.90
10095;DHT22;5086;50.830;7.102;2023-04-28T08:08:47;14.00;99.90
10095;DHT22;5086;50.830;7.102;2023-04-28T08:11:16;14.00;99.90
10095;DHT22;5086;50.830;7.102;2023-04-28T08:13:44;13.90;99.90
10095;DHT22;5086;50.830;7.102;2023-04-28T08:16:13;13.90;99.90
10095;DHT22;5086;50.830;7.102;2023-04-28T08:18:49;14.10;99.90
10095;DHT22;5086;50.830;7.102;2023-04-28T08:21:20;14.30;99.90
10095;DHT22;5086;50.830;7.102;2023-04-28T08:23:51;14.70;99.90
10095;DHT22;5086;50.830;7.102;2023-04-28T08:26:20;15.10;99.90
10095;DHT22;5086;50.830;7.102;2023-04-28T08:29:01;15.30;99.90
10095;DHT22;5086;50.830;7.102;2023-04-28T08:31:37;15.40;99.90
10095;DHT22;5086;50.830;7.102;2023-04-28T08:34:10;15.40;99.90
10095;DHT22;5086;50.830;7.102;2023-04-28T08:36:37;15.40;99.90
10095;DHT22;5086;50.830;7.102;2023-04-28T08:39:04;15.30;99.90
10095;DHT22;5086;50.830;7.102;2023-04-28T08:41:37;15.50;99.90
10095;DHT22;5086;50.830;7.102;2023-04-28T08:44:07;15.60;99.90
10095;DHT22;5086;50.830;7.102;2023-04-28T08:46:35;15.60;99.90
10095;DHT22;5086;50.830;7.102;2023-04-28T08:49:03;15.60;99.90
10095;DHT22;5086;50.830;7.102;2023-04-28T08:51:36;15.50;99.90
10095;DHT22;5086;50.830;7.102;2023-04-28T08:54:07;15.60;99.90
10095;DHT22;5086;50.830;7.102;2023-04-28T08:56:43;15.70;99.90
10095;DHT22;5086;50.830;7.102;2023-04-28T08:59:11;15.70;99.90
10095;DHT22;5086;50.830;7.102;2023-04-28T09:01:52;15.60;99.90
10095;DHT22;5086;50.830;7.102;2023-04-28T09:04:25;15.60;99.90
10095;DHT22;5086;50.830;7.102;2023-04-28T09:06:53;15.50;99.90
10095;DHT22;5086;50.830;7.102;2023-04-28T09:09:21;15.40;99.90
10095;DHT22;5086;50.830;7.102;2023-04-28T09:12:02;15.40;99.90
10095;DHT22;5086;50.830;7.102;2023-04-28T09:14:30;15.30;99.90
10095;DHT22;5086;50.830;7.102;2023-04-28T09:17:01;15.20;99.90
10095;DHT22;5086;50.830;7.102;2023-04-28T09:19:32;15.10;99.90
10095;DHT22;5086;50.830;7.102;2023-04-28T09:22:01;15.10;99.90
10095;DHT22;5086;50.830;7.102;2023-04-28T09:24:29;14.90;99.90
10095;DHT22;5086;50.830;7.102;2023-04-28T09:26:58;14.80;99.90
10095;DHT22;5086;50.830;7.102;2023-04-28T09:29:25;14.90;99.90
10095;DHT22;5086;50.830;7.102;2023-04-28T09:31:52;14.80;99.90
10095;DHT22;5086;50.830;7.102;2023-04-28T09:34:19;14.80;99.90
10095;DHT22;5086;50.830;7.102;2023-04-28T09:36:46;14.70;99.90
10095;DHT22;5086;50.830;7.102;2023-04-28T09:39:13;14.70;99.90
10095;DHT22;5086;50.830;7.102;2023-04-28T09:41:42;14.60;99.90
10095;DHT22;5086;50.830;7.102;2023-04-28T09:44:15;14.60;99.90
10095;DHT22;5086;50.830;7.102;2023-04-28T09:46:44;14.50;99.90
10095;DHT22;5086;50.830;7.102;2023-04-28T09:49:11;14.50;99.90
10095;DHT22;5086;50.830;7.102;2023-04-28T09:51:40;14.50;99.90
10095;DHT22;5086;50.830;7.102;2023-04-28T09:54:07;14.40;99.90
10095;DHT22;5086;50.830;7.102;2023-04-28T09:56:34;14.40;99.90
10095;DHT22;5086;50.830;7.102;2023-04-28T09:59:03;14.30;99.90
10095;DHT22;5086;50.830;7.102;2023-04-28T10:01:36;14.30;99.90
10095;DHT22;5086;50.830;7.102;2023-04-28T10:04:06;14.40;99.90
10095;DHT22;5086;50.830;7.102;2023-04-28T10:06:33;14.40;99.90
10095;DHT22;5086;50.830;7.102;2023-04-28T10:09:02;14.50;99.90
10095;DHT22;5086;50.830;7.102;2023-04-28T10:11:31;14.50;99.90
10095;DHT22;5086;50.830;7.102;2023-04-28T10:13:59;14.50;99.90
10095;DHT22;5086;50.830;7.102;2023-04-28T10:16:29;14.60;99.90
10095;DHT22;5086;50.830;7.102;2023-04-28T10:18:58;14.70;99.90
10095;DHT22;5086;50.830;7.102;2023-04-28T10:21:31;14.80;99.90
10095;DHT22;5086;50.830;7.102;2023-04-28T10:24:09;14.80;99.90
10095;DHT22;5086;50.830;7.102;2023-04-28T10:27:04;14.80;99.90
10095;DHT22;5086;50.830;7.102;2023-04-28T10:29:33;14.90;99.90
10095;DHT22;5086;50.830;7.102;2023-04-28T10:32:17;14.90;99.90
10095;DHT22;5086;50.830;7.102;2023-04-28T10:34:46;14.90;99.90
10095;DHT22;5086;50.830;7.102;2023-04-28T10:37:13;14.90;99.90
10095;DHT22;5086;50.830;7.102;2023-04-28T10:42:52;14.90;99.90
10095;DHT22;5086;50.830;7.102;2023-04-28T10:46:01;14.90;99.90
10095;DHT22;5086;50.830;7.102;2023-04-28T10:48:57;14.80;99.90
10095;DHT22;5086;50.830;7.102;2023-04-28T10:51:29;14.90;99.90
10095;DHT22;5086;50.830;7.102;2023-04-28T10:54:07;14.90;99.90
10095;DHT22;5086;50.830;7.102;2023-04-28T10:56:34;15.00;99.90
10095;DHT22;5086;50.830;7.102;2023-04-28T10:59:24;15.00;99.90
10095;DHT22;5086;50.830;7.102;2023-04-28T11:01:51;15.10;99.90
10095;DHT22;5086;50.830;7.102;2023-04-28T11:04:17;15.20;99.90
10095;DHT22;5086;50.830;7.102;2023-04-28T11:06:46;15.20;99.90
10095;DHT22;5086;50.830;7.102;2023-04-28T11:09:49;15.30;99.90
10095;DHT22;5086;50.830;7.102;2023-04-28T11:12:17;15.30;99.90
10095;DHT22;5086;50.830;7.102;2023-04-28T11:14:44;15.40;99.90
10095;DHT22;5086;50.830;7.102;2023-04-28T11:17:11;15.40;99.90
10095;DHT22;5086;50.830;7.102;2023-04-28T11:19:42;15.40;99.90
10095;DHT22;5086;50.830;7.102;2023-04-28T11:22:15;15.50;99.90
10095;DHT22;5086;50.830;7.102;2023-04-28T11:24:54;15.60;99.90
10095;DHT22;5086;50.830;7.102;2023-04-28T11:27:25;15.90;99.90
10095;DHT22;5086;50.830;7.102;2023-04-28T11:29:52;16.10;99.90
10095;DHT22;5086;50.830;7.102;2023-04-28T11:32:25;16.30;99.90
10095;DHT22;5086;50.830;7.102;2023-04-28T11:34:53;16.60;99.90
10095;DHT22;5086;50.830;7.102;2023-04-28T11:37:21;16.80;99.90
10095;DHT22;5086;50.830;7.102;2023-04-28T11:39:48;17.10;99.90
10095;DHT22;5086;50.830;7.102;2023-04-28T11:42:17;17.30;99.90
10095;DHT22;5086;50.830;7.102;2023-04-28T11:44:49;17.40;99.90
10095;DHT22;5086;50.830;7.102;2023-04-28T11:47:27;17.50;99.90
10095;DHT22;5086;50.830;7.102;2023-04-28T11:49:55;17.60;99.90
10095;DHT22;5086;50.830;7.102;2023-04-28T11:52:23;17.60;99.90
10095;DHT22;5086;50.830;7.102;2023-04-28T11:54:55;17.60;99.90
10095;DHT22;5086;50.830;7.102;2023-04-28T11:57:23;17.30;99.90
10095;DHT22;5086;50.830;7.102;2023-04-28T11:59:51;17.30;99.90
10095;DHT22;5086;50.830;7.102;2023-04-28T12:02:24;17.30;99.90
10095;DHT22;5086;50.830;7.102;2023-04-28T12:04:53;17.10;99.90
10095;DHT22;5086;50.830;7.102;2023-04-28T12:07:20;17.20;99.90
10095;DHT22;5086;50.830;7.102;2023-04-28T12:10:09;17.50;99.90
10095;DHT22;5086;50.830;7.102;2023-04-28T12:12:36;18.00;99.90
10095;DHT22;5086;50.830;7.102;2023-04-28T12:15:05;18.00;99.90
10095;DHT22;5086;50.830;7.102;2023-04-28T12:17:34;18.00;99.90
10095;DHT22;5086;50.830;7.102;2023-04-28T12:20:02;18.00;99.90
10095;DHT22;5086;50.830;7.102;2023-04-28T12:22:42;18.00;99.90
10095;DHT22;5086;50.830;7.102;2023-04-28T12:25:12;18.00;99.90
10095;DHT22;5086;50.830;7.102;2023-04-28T12:27:40;17.90;99.90
10095;DHT22;5086;50.830;7.102;2023-04-28T12:30:27;17.80;99.90
10095;DHT22;5086;50.830;7.102;2023-04-28T12:32:55;17.80;99.90
10095;DHT22;5086;50.830;7.102;2023-04-28T12:35:22;17.90;99.90
10095;DHT22;5086;50.830;7.102;2023-04-28T12:37:50;17.80;99.90
10095;DHT22;5086;50.830;7.102;2023-04-28T12:40:18;17.80;99.90
10095;DHT22;5086;50.830;7.102;2023-04-28T12:42:45;17.80;99.90
10095;DHT22;5086;50.830;7.102;2023-04-28T12:45:12;17.70;99.90
10095;DHT22;5086;50.830;7.102;2023-04-28T12:47:40;17.90;99.90
10095;DHT22;5086;50.830;7.102;2023-04-28T12:50:08;17.90;99.90
10095;DHT22;5086;50.830;7.102;2023-04-28T12:52:35;17.90;99.90
10095;DHT22;5086;50.830;7.102;2023-04-28T12:55:02;18.00;99.90
10095;DHT22;5086;50.830;7.102;2023-04-28T12:57:30;18.00;99.90
10095;DHT22;5086;50.830;7.102;2023-04-28T12:59:57;18.10;99.90
10095;DHT22;5086;50.830;7.102;2023-04-28T13:02:24;18.20;99.90
10095;DHT22;5086;50.830;7.102;2023-04-28T13:04:51;18.30;99.90
10095;DHT22;5086;50.830;7.102;2023-04-28T13:07:18;18.40;99.90
10095;DHT22;5086;50.830;7.102;2023-04-28T13:09:45;18.60;99.90
10095;DHT22;5086;50.830;7.102;2023-04-28T13:12:12;18.70;99.90
10095;DHT22;5086;50.830;7.102;2023-04-28T13:14:40;18.90;99.90
10095;DHT22;5086;50.830;7.102;2023-04-28T13:17:07;19.00;99.90
10095;DHT22;5086;50.830;7.102;2023-04-28T13:19:34;19.10;99.90
10095;DHT22;5086;50.830;7.102;2023-04-28T13:22:03;19.00;99.90
10095;DHT22;5086;50.830;7.102;2023-04-28T13:24:31;19.10;99.90
10095;DHT22;5086;50.830;7.102;2023-04-28T13:26:59;19.30;99.90
10095;DHT22;5086;50.830;7.102;2023-04-28T13:29:26;19.40;99.90
10095;DHT22;5086;50.830;7.102;2023-04-28T13:31:55;19.30;99.90
10095;DHT22;5086;50.830;7.102;2023-04-28T13:34:21;19.40;99.90
10095;DHT22;5086;50.830;7.102;2023-04-28T13:36:48;19.50;99.90
10095;DHT22;5086;50.830;7.102;2023-04-28T13:39:16;19.60;99.90
10095;DHT22;5086;50.830;7.102;2023-04-28T13:41:44;19.60;99.90
10095;DHT22;5086;50.830;7.102;2023-04-28T13:44:11;19.70;99.90
10095;DHT22;5086;50.830;7.102;2023-04-28T13:46:38;19.80;99.90
10095;DHT22;5086;50.830;7.102;2023-04-28T13:49:06;19.90;99.90
10095;DHT22;5086;50.830;7.102;2023-04-28T13:51:33;20.00;99.90
10095;DHT22;5086;50.830;7.102;2023-04-28T13:54:00;20.00;99.90
10095;DHT22;5086;50.830;7.102;2023-04-28T13:56:29;20.10;99.90
10095;DHT22;5086;50.830;7.102;2023-04-28T13:58:56;20.20;99.90
10095;DHT22;5086;50.830;7.102;2023-04-28T14:01:23;20.30;99.90
10095;DHT22;5086;50.830;7.102;2023-04-28T14:03:50;20.50;99.90
10095;DHT22;5086;50.830;7.102;2023-04-28T14:06:19;20.50;99.90
10095;DHT22;5086;50.830;7.102;2023-04-28T14:08:46;20.60;99.90
10095;DHT22;5086;50.830;7.102;2023-04-28T14:11:13;20.50;99.90
10095;DHT22;5086;50.830;7.102;2023-04-28T14:13:40;20.50;99.90
10095;DHT22;5086;50.830;7.102;2023-04-28T14:16:07;20.30;99.90
10095;DHT22;5086;50.830;7.102;2023-04-28T14:18:34;20.30;99.90
10095;DHT22;5086;50.830;7.102;2023-04-28T14:21:01;20.00;99.90
10095;DHT22;5086;50.830;7.102;2023-04-28T14:23:33;19.70;99.90
10095;DHT22;5086;50.830;7.102;2023-04-28T14:26:01;19.40;99.90
10095;DHT22;5086;50.830;7.102;2023-04-28T14:28:28;19.30;99.90
10095;DHT22;5086;50.830;7.102;2023-04-28T14:30:56;19.30;99.90
10095;DHT22;5086;50.830;7.102;2023-04-28T14:33:23;19.30;99.90
10095;DHT22;5086;50.830;7.102;2023-04-28T14:35:50;19.40;99.90
10095;DHT22;5086;50.830;7.102;2023-04-28T14:38:17;19.40;99.90
10095;DHT22;5086;50.830;7.102;2023-04-28T14:40:45;19.60;99.90
10095;DHT22;5086;50.830;7.102;2023-04-28T14:43:12;19.80;99.90
10095;DHT22;5086;50.830;7.102;2023-04-28T14:45:39;19.90;99.90
10095;DHT22;5086;50.830;7.102;2023-04-28T14:48:06;19.90;99.90
10095;DHT22;5086;50.830;7.102;2023-04-28T14:50:35;19.90;99.90
10095;DHT22;5086;50.830;7.102;2023-04-28T14:53:03;19.80;99.90
10095;DHT22;5086;50.830;7.102;2023-04-28T14:55:32;19.80;99.90
10095;DHT22;5086;50.830;7.102;2023-04-28T14:58:01;19.80;99.90
10095;DHT22;5086;50.830;7.102;2023-04-28T15:00:28;20.00;99.90
10095;DHT22;5086;50.830;7.102;2023-04-28T15:02:55;20.10;99.90
10095;DHT22;5086;50.830;7.102;2023-04-28T15:05:22;20.30;99.90
10095;DHT22;5086;50.830;7.102;2023-04-28T15:07:52;20.40;99.90
10095;DHT22;5086;50.830;7.102;2023-04-28T15:10:20;20.30;99.90
10095;DHT22;5086;50.830;7.102;2023-04-28T15:12:47;20.30;99.90
10095;DHT22;5086;50.830;7.102;2023-04-28T15:15:18;20.30;99.90
10095;DHT22;5086;50.830;7.102;2023-04-28T15:17:45;20.60;99.90
10095;DHT22;5086;50.830;7.102;2023-04-28T15:20:12;20.60;99.90
10095;DHT22;5086;50.830;7.102;2023-04-28T15:22:39;20.60;99.90
10095;DHT22;5086;50.830;7.102;2023-04-28T15:25:09;20.30;99.90
10095;DHT22;5086;50.830;7.102;2023-04-28T15:27:36;20.20;99.90
10095;DHT22;5086;50.830;7.102;2023-04-28T15:30:03;20.10;99.90
10095;DHT22;5086;50.830;7.102;2023-04-28T15:32:32;20.00;99.90
10095;DHT22;5086;50.830;7.102;2023-04-28T15:35:00;20.00;99.90
10095;DHT22;5086;50.830;7.102;2023-04-28T15:37:42;20.20;99.90
10095;DHT22;5086;50.830;7.102;2023-04-28T15:40:10;20.30;99.90
10095;DHT22;5086;50.830;7.102;2023-04-28T15:42:38;20.40;99.90
10095;DHT22;5086;50.830;7.102;2023-04-28T15:45:07;20.20;99.90
10095;DHT22;5086;50.830;7.102;2023-04-28T15:47:40;20.20;99.90
10095;DHT22;5086;50.830;7.102;2023-04-28T15:50:08;20.20;99.90
10095;DHT22;5086;50.830;7.102;2023-04-28T15:52:37;20.10;99.90
10095;DHT22;5086;50.830;7.102;2023-04-28T15:55:09;20.10;99.90
10095;DHT22;5086;50.830;7.102;2023-04-28T15:57:39;20.10;99.90
10095;DHT22;5086;50.830;7.102;2023-04-28T16:00:08;20.00;99.90
10095;DHT22;5086;50.830;7.102;2023-04-28T16:02:38;19.80;99.90
10095;DHT22;5086;50.830;7.102;2023-04-28T16:05:08;19.60;99.90
10095;DHT22;5086;50.830;7.102;2023-04-28T16:07:35;19.40;99.90